createdAt,value
2022-08-07T00:00:25.991Z,1.30
2022-08-07T00:02:53.795Z,1.30
2022-08-07T00:05:21.278Z,1.20
2022-08-07T00:07:59.717Z,1.30
2022-08-07T00:10:29.604Z,1.13
2022-08-07T00:13:00.957Z,1.52
2022-08-07T00:15:38.383Z,1.20
2022-08-07T00:18:19.464Z,1.48
2022-08-07T00:20:49.206Z,1.40
2022-08-07T00:23:17.029Z,1.40
2022-08-07T00:25:45.748Z,1.13
2022-08-07T00:28:22.040Z,1.42
2022-08-07T00:30:49.381Z,1.30
2022-08-07T00:33:16.687Z,1.35
2022-08-07T00:35:49.088Z,1.17
2022-08-07T00:38:16.664Z,1.30
2022-08-07T00:40:59.634Z,1.20
2022-08-07T00:44:01.580Z,1.20
2022-08-07T00:46:14.351Z,1.70
2022-08-07T00:48:42.430Z,1.10
2022-08-07T00:53:50.200Z,1.42
2022-08-07T00:56:18.511Z,1.30
2022-08-07T00:58:46.702Z,1.55
2022-08-07T01:01:16.067Z,1.42
2022-08-07T01:03:56.411Z,1.27
2022-08-07T01:06:29.213Z,1.52
2022-08-07T01:08:59.346Z,1.60
2022-08-07T01:12:09.387Z,1.55
2022-08-07T01:14:21.290Z,1.52
2022-08-07T01:16:57.096Z,1.55
2022-08-07T01:19:27.258Z,1.80
2022-08-07T01:21:59.336Z,1.48
2022-08-07T01:24:31.836Z,1.70
2022-08-07T01:27:03.570Z,1.60
2022-08-07T01:29:33.929Z,1.48
2022-08-07T01:32:05.497Z,1.88
2022-08-07T01:34:44.477Z,1.70
2022-08-07T01:37:17.357Z,1.80
2022-08-07T01:39:47.728Z,1.52
2022-08-07T01:42:38.748Z,1.70
2022-08-07T01:45:18.416Z,1.48
2022-08-07T01:48:20.560Z,2.15
2022-08-07T01:53:21.058Z,1.75
2022-08-07T01:56:02.549Z,1.95
2022-08-07T01:58:37.498Z,1.95
2022-08-07T02:01:25.485Z,1.77
2022-08-07T02:04:11.429Z,2.00
2022-08-07T02:06:44.226Z,2.08
2022-08-07T02:09:33.887Z,2.03
2022-08-07T02:12:18.030Z,1.90
2022-08-07T02:14:56.552Z,1.90
2022-08-07T02:17:37.484Z,2.08
2022-08-07T02:20:09.440Z,2.20
2022-08-07T02:22:46.317Z,2.28
2022-08-07T02:25:17.255Z,2.20
2022-08-07T02:27:56.669Z,2.10
2022-08-07T02:30:25.661Z,2.50
2022-08-07T02:33:00.104Z,2.20
2022-08-07T02:36:29.121Z,2.27
2022-08-07T02:38:28.073Z,2.70
2022-08-07T02:41:03.971Z,2.60
2022-08-07T02:43:36.204Z,2.60
2022-08-07T02:46:07.424Z,2.17
2022-08-07T02:48:36.023Z,2.28
2022-08-07T02:51:28.817Z,2.00
2022-08-07T02:54:02.944Z,2.35
2022-08-07T02:56:33.122Z,2.45
2022-08-07T02:59:03.968Z,2.47
2022-08-07T03:01:36.123Z,2.47
2022-08-07T03:04:12.964Z,2.80
2022-08-07T03:06:45.834Z,2.67
2022-08-07T03:09:14.535Z,2.70
2022-08-07T03:12:04.055Z,2.53
2022-08-07T03:14:36.213Z,2.50
2022-08-07T03:17:04.978Z,2.40
2022-08-07T03:19:37.056Z,2.70
2022-08-07T03:22:06.792Z,2.58
2022-08-07T03:24:34.530Z,2.88
2022-08-07T03:27:09.113Z,2.85
2022-08-07T03:29:50.476Z,2.42
2022-08-07T03:32:26.954Z,2.60
2022-08-07T03:35:16.692Z,2.25
2022-08-07T03:37:55.026Z,2.50
2022-08-07T03:40:36.025Z,2.72
2022-08-07T03:43:13.559Z,2.15
2022-08-07T03:45:48.488Z,2.78
2022-08-07T03:48:19.821Z,2.90
2022-08-07T03:50:56.302Z,2.90
2022-08-07T03:54:32.959Z,3.20
2022-08-07T03:59:12.772Z,3.20
2022-08-07T04:01:45.347Z,3.15
2022-08-07T04:04:17.354Z,3.15
2022-08-07T04:06:46.688Z,3.00
2022-08-07T04:09:19.718Z,2.92
2022-08-07T04:12:25.500Z,3.22
2022-08-07T04:14:43.669Z,3.28
2022-08-07T04:17:20.321Z,3.50
2022-08-07T04:19:54.442Z,2.83
2022-08-07T04:22:29.394Z,3.13
2022-08-07T04:25:01.166Z,3.47
2022-08-07T04:27:35.718Z,3.17
2022-08-07T04:30:35.743Z,3.45
2022-08-07T04:33:10.157Z,3.35
2022-08-07T04:35:50.429Z,3.25
2022-08-07T04:38:24.991Z,3.30
2022-08-07T04:40:56.879Z,3.40
2022-08-07T04:44:12.929Z,3.15
2022-08-07T04:47:04.947Z,3.47
2022-08-07T04:49:37.706Z,4.22
2022-08-07T04:52:19.775Z,3.40
2022-08-07T04:55:15.558Z,3.40
2022-08-07T04:58:42.419Z,3.45
2022-08-07T05:01:18.331Z,3.45
2022-08-07T05:04:06.531Z,3.58
2022-08-07T05:07:01.263Z,3.65
2022-08-07T05:10:16.627Z,3.35
2022-08-07T05:14:45.570Z,3.30
2022-08-07T05:15:55.236Z,3.50
2022-08-07T05:18:29.671Z,3.25
2022-08-07T05:21:04.032Z,3.47
2022-08-07T05:23:45.523Z,3.35
2022-08-07T05:26:24.010Z,3.70
2022-08-07T05:28:59.235Z,3.20
2022-08-07T05:31:38.306Z,3.72
2022-08-07T05:34:12.860Z,3.50
2022-08-07T05:36:49.161Z,3.65
2022-08-07T05:40:05.098Z,3.60
2022-08-07T05:42:15.055Z,3.38
2022-08-07T05:45:04.341Z,3.50
2022-08-07T05:48:01.862Z,3.35
2022-08-07T05:50:31.730Z,4.00
2022-08-07T05:53:01.512Z,3.88
2022-08-07T05:56:02.129Z,3.80
2022-08-07T05:58:17.331Z,3.45
2022-08-07T06:01:10.500Z,3.10
2022-08-07T06:03:57.189Z,3.00
2022-08-07T06:06:32.780Z,2.70
2022-08-07T06:09:05.028Z,3.53
2022-08-07T06:11:35.613Z,2.80
2022-08-07T06:16:50.774Z,2.30
2022-08-07T06:19:51.905Z,2.58
2022-08-07T06:22:23.848Z,2.08
2022-08-07T06:25:02.864Z,2.15
2022-08-07T06:27:59.818Z,2.35
2022-08-07T06:30:31.800Z,2.13
2022-08-07T06:33:15.650Z,2.28
2022-08-07T06:35:45.509Z,2.30
2022-08-07T06:38:20.048Z,2.35
2022-08-07T06:40:52.888Z,2.00
2022-08-07T06:43:24.228Z,1.80
2022-08-07T06:46:13.169Z,1.88
2022-08-07T06:48:44.712Z,1.80
2022-08-07T06:51:33.101Z,1.83
2022-08-07T06:55:27.860Z,1.70
2022-08-07T06:56:56.391Z,1.63
2022-08-07T07:00:14.348Z,1.75
2022-08-07T07:02:53.820Z,1.67
2022-08-07T07:06:03.103Z,1.63
2022-08-07T07:08:06.927Z,1.30
2022-08-07T07:10:35.380Z,1.58
2022-08-07T07:13:17.135Z,1.40
2022-08-07T07:16:11.111Z,1.02
2022-08-07T07:18:48.305Z,1.30
2022-08-07T07:21:40.448Z,1.13
2022-08-07T07:24:17.554Z,1.20
2022-08-07T07:26:51.855Z,1.65
2022-08-07T07:29:55.964Z,1.70
2022-08-07T07:32:25.154Z,1.20
2022-08-07T07:34:59.222Z,1.17
2022-08-07T07:37:47.296Z,1.15
2022-08-07T07:40:18.876Z,1.23
2022-08-07T07:42:51.359Z,1.42
2022-08-07T07:46:36.788Z,1.00
2022-08-07T07:48:35.345Z,1.05
2022-08-07T07:51:07.856Z,1.05
2022-08-07T07:53:51.929Z,1.05
2022-08-07T07:56:30.398Z,0.88
2022-08-07T08:02:01.999Z,0.90
2022-08-07T08:04:20.178Z,0.93
2022-08-07T08:06:53.742Z,1.10
2022-08-07T08:09:24.504Z,0.95
2022-08-07T08:12:01.742Z,0.90
2022-08-07T08:14:36.526Z,0.73
2022-08-07T08:18:36.532Z,0.70
2022-08-07T08:20:26.173Z,0.80
2022-08-07T08:23:18.169Z,0.70
2022-08-07T08:26:08.240Z,0.95
2022-08-07T08:28:45.279Z,0.80
2022-08-07T08:31:22.683Z,0.87
2022-08-07T08:33:59.018Z,0.70
2022-08-07T08:36:30.460Z,0.70
2022-08-07T08:39:01.867Z,1.98
2022-08-07T08:41:59.419Z,1.15
2022-08-07T08:44:53.770Z,1.10
2022-08-07T08:47:29.665Z,0.80
2022-08-07T08:50:17.590Z,0.68
2022-08-07T08:53:14.789Z,0.75
2022-08-07T08:55:58.694Z,0.80
2022-08-07T08:59:06.357Z,0.80
2022-08-07T09:01:46.733Z,0.73
2022-08-07T09:04:40.455Z,0.65
2022-08-07T09:07:57.584Z,0.80
2022-08-07T09:10:31.817Z,0.80
2022-08-07T09:13:16.765Z,0.73
2022-08-07T09:16:25.160Z,1.20
2022-08-07T09:19:07.304Z,3.85
2022-08-07T09:24:28.309Z,1.02
2022-08-07T09:25:17.661Z,0.75
2022-08-07T09:30:01.889Z,0.90
2022-08-07T09:31:13.448Z,0.90
2022-08-07T09:34:03.587Z,0.90
2022-08-07T09:36:49.806Z,0.93
2022-08-07T09:39:55.249Z,0.73
2022-08-07T09:42:33.808Z,0.73
2022-08-07T09:47:25.279Z,4.72
2022-08-07T09:48:19.482Z,0.85
2022-08-07T09:51:02.454Z,0.80
2022-08-07T09:53:41.363Z,0.65
2022-08-07T09:56:53.222Z,0.90
2022-08-07T09:59:46.486Z,0.70
2022-08-07T10:02:37.125Z,0.60
2022-08-07T10:05:59.539Z,0.75
2022-08-07T10:08:27.994Z,0.68
2022-08-07T10:11:59.542Z,0.60
2022-08-07T10:14:06.970Z,0.70
2022-08-07T10:16:41.332Z,0.77
2022-08-07T10:19:38.449Z,0.60
2022-08-07T10:22:33.532Z,0.70
2022-08-07T10:25:12.668Z,0.55
2022-08-07T10:28:26.073Z,1.08
2022-08-07T10:30:52.890Z,1.50
2022-08-07T10:34:05.887Z,0.63
2022-08-07T10:36:41.071Z,0.80
2022-08-07T10:39:57.215Z,0.70
2022-08-07T10:42:57.550Z,0.50
2022-08-07T10:45:44.888Z,1.00
2022-08-07T10:48:36.602Z,0.57
2022-08-07T10:51:57.547Z,0.88
2022-08-07T10:54:04.514Z,0.60
2022-08-07T10:56:43.363Z,0.80
2022-08-07T10:59:24.448Z,0.60
2022-08-07T11:02:32.795Z,0.50
2022-08-07T11:05:35.876Z,0.70
2022-08-07T11:08:31.499Z,0.60
2022-08-07T11:11:24.494Z,0.60
2022-08-07T11:14:44.286Z,0.60
2022-08-07T11:17:42.757Z,0.52
2022-08-07T11:20:22.490Z,0.60
2022-08-07T11:23:30.724Z,0.70
2022-08-07T11:26:48.165Z,0.60
2022-08-07T11:29:42.712Z,0.52
2022-08-07T11:32:25.307Z,1.38
2022-08-07T11:34:59.866Z,1.10
2022-08-07T11:37:58.099Z,0.70
2022-08-07T11:40:57.969Z,0.80
2022-08-07T11:43:54.491Z,0.50
2022-08-07T11:46:48.746Z,0.63
2022-08-07T11:50:25.163Z,0.50
2022-08-07T11:52:40.079Z,0.50
2022-08-07T11:55:18.995Z,0.60
2022-08-07T11:58:49.622Z,0.43
2022-08-07T12:01:59.998Z,0.52
2022-08-07T12:05:15.244Z,0.40
2022-08-07T12:08:07.241Z,0.65
2022-08-07T12:13:47.539Z,0.57
2022-08-07T12:16:36.658Z,0.60
2022-08-07T12:19:56.320Z,0.63
2022-08-07T12:22:38.621Z,0.70
2022-08-07T12:26:05.901Z,0.60
2022-08-07T12:29:05.895Z,0.60
2022-08-07T12:32:01.730Z,0.50
2022-08-07T12:34:40.891Z,0.43
2022-08-07T12:37:16.552Z,1.65
2022-08-07T12:39:52.166Z,1.15
2022-08-07T12:42:31.930Z,0.50
2022-08-07T12:45:06.483Z,0.60
2022-08-07T12:48:04.576Z,0.50
2022-08-07T12:51:00.364Z,0.70
2022-08-07T12:54:37.238Z,0.50
2022-08-07T12:56:55.245Z,0.63
2022-08-07T12:59:54.903Z,0.38
2022-08-07T13:02:33.790Z,0.60
2022-08-07T13:06:04.557Z,0.47
2022-08-07T13:08:38.960Z,0.70
2022-08-07T13:12:02.243Z,0.57
2022-08-07T13:14:37.613Z,0.60
2022-08-07T13:17:23.690Z,0.70
2022-08-07T13:20:08.241Z,0.60
2022-08-07T13:25:32.049Z,0.50
2022-08-07T13:28:13.378Z,0.60
2022-08-07T13:30:49.092Z,0.60
2022-08-07T13:34:33.060Z,0.73
2022-08-07T13:36:40.894Z,0.63
2022-08-07T13:39:49.204Z,0.65
2022-08-07T13:42:10.458Z,0.45
2022-08-07T13:44:39.726Z,0.63
2022-08-07T13:47:15.862Z,0.82
2022-08-07T13:50:32.541Z,0.70
2022-08-07T13:52:44.573Z,0.63
2022-08-07T13:55:26.717Z,0.60
2022-08-07T13:58:28.162Z,0.60
2022-08-07T14:01:10.963Z,0.70
2022-08-07T14:04:07.755Z,0.60
2022-08-07T14:06:44.405Z,0.52
2022-08-07T14:10:02.461Z,0.80
2022-08-07T14:12:27.366Z,0.80
2022-08-07T14:15:18.675Z,0.60
2022-08-07T14:18:15.939Z,0.60
2022-08-07T14:20:42.383Z,0.50
2022-08-07T14:23:58.582Z,0.90
2022-08-07T14:26:30.364Z,0.55
2022-08-07T14:29:10.609Z,0.60
2022-08-07T14:31:56.154Z,0.40
2022-08-07T14:34:29.740Z,0.47
2022-08-07T14:37:03.714Z,0.50
2022-08-07T14:40:15.466Z,0.52
2022-08-07T14:42:31.541Z,0.60
2022-08-07T14:47:53.006Z,0.60
2022-08-07T14:53:16.414Z,1.00
2022-08-07T14:56:08.662Z,0.45
2022-08-07T15:04:05.821Z,0.50
2022-08-07T15:06:35.629Z,0.70
2022-08-07T15:09:58.529Z,1.02
2022-08-07T15:12:04.807Z,0.90
2022-08-07T15:14:36.003Z,0.60
2022-08-07T15:17:32.821Z,0.57
2022-08-07T15:20:55.624Z,0.40
2022-08-07T15:26:22.772Z,0.60
